Time;durP1;ratioP1;P1;durP2;ratioP2;P2;SDS_P1;SDS_P2;PMS_P1;PMS_P2;Temp;Humidity;BMP_temperature;BMP_pressure;BME280_temperature;BME280_humidity;BME280_pressure;Samples;Min_cycle;Max_cycle;Signal;HPM_P1;HPM_P2
2021/03/19 00:02:19;;;;;;;61.63;30.88;;;2.50;99.90;;;;;;5073415;28;20465;-64
2021/03/19 00:04:45;;;;;;;58.30;32.33;;;2.50;99.90;;;;;;5074083;28;20377;-64
2021/03/19 00:07:10;;;;;;;59.70;32.22;;;2.40;99.90;;;;;;5077010;28;20369;-64
2021/03/19 00:09:36;;;;;;;63.03;31.70;;;2.40;99.90;;;;;;5077040;28;20032;-64
2021/03/19 00:12:01;;;;;;;63.33;32.40;;;2.30;99.90;;;;;;5076423;28;20039;-64
2021/03/19 00:14:27;;;;;;;60.60;33.55;;;2.40;99.90;;;;;;5076835;28;20067;-64
2021/03/19 00:16:52;;;;;;;62.70;32.50;;;2.30;99.90;;;;;;5076735;28;20025;-64
2021/03/19 00:19:19;;;;;;;71.93;33.80;;;2.20;99.90;;;;;;5076745;28;20020;-64
2021/03/19 00:21:44;;;;;;;63.90;33.55;;;2.20;99.90;;;;;;5076201;28;20028;-64
2021/03/19 00:24:10;;;;;;;62.53;33.97;;;2.20;99.90;;;;;;5076679;28;20045;-64
2021/03/19 00:26:36;;;;;;;68.10;33.70;;;2.20;99.90;;;;;;5076610;28;20468;-64
2021/03/19 00:29:02;;;;;;;66.63;34.13;;;2.30;99.90;;;;;;5076603;28;20040;-64
2021/03/19 00:31:28;;;;;;;62.97;33.58;;;2.40;99.90;;;;;;5076566;28;20029;-64
2021/03/19 00:33:53;;;;;;;63.38;34.35;;;2.40;99.90;;;;;;5076488;28;20029;-64
2021/03/19 00:36:19;;;;;;;58.83;31.67;;;2.40;99.90;;;;;;5074658;28;20111;-64
2021/03/19 00:38:44;;;;;;;55.22;31.35;;;2.40;99.90;;;;;;5074864;28;20115;-64
2021/03/19 00:41:10;;;;;;;62.78;31.05;;;2.50;99.90;;;;;;5076353;28;20078;-64
2021/03/19 00:43:36;;;;;;;61.53;31.23;;;2.50;99.90;;;;;;5076340;28;20035;-64
2021/03/19 00:46:01;;;;;;;60.97;30.90;;;2.60;99.90;;;;;;5075114;28;20056;-64
2021/03/19 00:48:27;;;;;;;56.80;30.42;;;2.60;99.90;;;;;;5076225;28;20028;-64
2021/03/19 00:50:53;;;;;;;57.70;31.50;;;2.60;99.90;;;;;;5075885;28;20095;-64
2021/03/19 00:53:19;;;;;;;56.95;30.88;;;2.60;99.90;;;;;;5076143;28;20025;-64
2021/03/19 00:55:45;;;;;;;49.78;29.90;;;2.70;99.90;;;;;;5075822;28;20036;-64
2021/03/19 00:58:10;;;;;;;55.83;32.13;;;2.60;99.90;;;;;;5075350;28;20052;-64
2021/03/19 01:00:37;;;;;;;56.15;30.80;;;2.60;99.90;;;;;;5075986;28;20086;-64
2021/03/19 01:03:03;;;;;;;58.03;31.42;;;2.60;99.90;;;;;;5075654;28;20028;-64
2021/03/19 01:05:34;;;;;;;54.72;29.58;;;2.60;99.90;;;;;;5075659;28;20040;-64
2021/03/19 01:08:00;;;;;;;53.88;29.08;;;2.50;99.90;;;;;;5075577;28;20035;-64
2021/03/19 01:10:29;;;;;;;57.00;31.15;;;2.40;99.90;;;;;;5075742;28;20024;-64
2021/03/19 01:12:56;;;;;;;59.95;31.10;;;2.40;99.90;;;;;;5075140;28;20036;-64
2021/03/19 01:15:22;;;;;;;51.42;30.77;;;2.40;99.90;;;;;;5073833;28;20062;-63
2021/03/19 01:17:48;;;;;;;52.08;30.23;;;2.40;99.90;;;;;;5075543;28;20016;-65
2021/03/19 01:20:15;;;;;;;51.97;28.55;;;2.40;99.90;;;;;;5074117;28;20029;-65
2021/03/19 01:22:41;;;;;;;61.40;31.67;;;2.40;99.90;;;;;;5075494;28;20012;-64
2021/03/19 01:25:12;;;;;;;54.92;30.10;;;2.40;99.90;;;;;;5075425;28;20441;-64
2021/03/19 01:27:37;;;;;;;56.90;30.42;;;2.40;99.90;;;;;;5074221;28;20484;-64
2021/03/19 01:30:06;;;;;;;57.35;30.40;;;2.40;99.90;;;;;;5074792;28;20036;-65
2021/03/19 01:32:31;;;;;;;57.65;32.50;;;2.40;99.90;;;;;;5075338;28;20032;-65
2021/03/19 01:34:57;;;;;;;57.47;29.60;;;2.40;99.90;;;;;;5074283;28;20449;-64
2021/03/19 01:37:22;;;;;;;57.42;28.58;;;2.40;99.90;;;;;;5075128;28;20029;-64
2021/03/19 01:39:48;;;;;;;60.50;30.23;;;2.40;99.90;;;;;;5075163;28;20161;-65
2021/03/19 01:42:13;;;;;;;57.63;30.23;;;2.40;99.90;;;;;;5073679;28;20024;-65
2021/03/19 01:45:19;;;;;;;53.33;29.10;;;2.30;99.90;;;;;;5074537;28;20032;-64
2021/03/19 01:48:24;;;;;;;52.20;29.25;;;2.30;99.90;;;;;;5072976;28;20081;-65
2021/03/19 01:51:30;;;;;;;60.47;31.05;;;2.30;99.90;;;;;;5074232;28;20059;-64
2021/03/19 01:54:35;;;;;;;58.85;30.95;;;2.10;99.90;;;;;;5074234;28;20028;-64
2021/03/19 01:57:40;;;;;;;57.40;30.77;;;2.10;99.90;;;;;;5073899;28;20474;-64
2021/03/19 02:00:46;;;;;;;63.45;30.83;;;2.00;99.90;;;;;;5072807;28;20025;-64
2021/03/19 02:03:51;;;;;;;64.68;30.52;;;2.00;99.90;;;;;;5074582;28;20021;-64
2021/03/19 02:06:57;;;;;;;61.53;30.88;;;1.90;99.90;;;;;;5073944;28;20024;-64
2021/03/19 02:10:02;;;;;;;65.32;31.77;;;1.80;99.90;;;;;;5073964;28;20039;-65
2021/03/19 02:13:07;;;;;;;67.75;33.38;;;1.70;99.90;;;;;;5073964;28;20438;-64
2021/03/19 02:16:13;;;;;;;67.18;35.35;;;1.70;99.90;;;;;;5073821;28;20024;-64
2021/03/19 02:19:21;;;;;;;70.50;34.97;;;1.70;99.90;;;;;;5073840;28;20032;-64
2021/03/19 02:22:26;;;;;;;66.75;33.78;;;1.60;99.90;;;;;;5074278;28;20031;-64
2021/03/19 02:25:32;;;;;;;77.85;36.13;;;1.60;99.90;;;;;;5073639;28;20385;-64
2021/03/19 02:28:37;;;;;;;69.13;33.08;;;1.50;99.90;;;;;;5073231;28;20120;-64
2021/03/19 02:31:15;;;;;;;74.22;35.78;;;1.50;99.90;;;;;;5073566;28;20078;-64
2021/03/19 02:34:01;;;;;;;80.13;33.45;;;1.50;99.90;;;;;;5074018;28;20050;-64
2021/03/19 02:36:29;;;;;;;76.43;35.70;;;1.50;99.90;;;;;;5073618;28;20116;-64
2021/03/19 02:38:55;;;;;;;79.97;35.42;;;1.50;99.90;;;;;;5073802;28;20056;-64
2021/03/19 02:41:22;;;;;;;87.45;37.88;;;1.40;99.90;;;;;;5073885;28;20013;-65
2021/03/19 02:43:47;;;;;;;78.85;36.72;;;1.40;99.90;;;;;;5073572;28;20021;-64
2021/03/19 02:46:13;;;;;;;85.75;36.42;;;1.30;99.90;;;;;;5073544;28;20101;-64
2021/03/19 02:48:39;;;;;;;83.28;36.22;;;1.30;99.90;;;;;;5073540;28;20024;-64
2021/03/19 02:51:05;;;;;;;88.35;38.38;;;1.30;99.90;;;;;;5072834;28;20038;-64
2021/03/19 02:53:32;;;;;;;83.85;36.22;;;1.30;99.90;;;;;;5072290;28;20032;-64
2021/03/19 02:56:00;;;;;;;82.32;35.97;;;1.30;99.90;;;;;;5073733;28;20052;-64
2021/03/19 02:58:26;;;;;;;78.43;35.70;;;1.30;99.90;;;;;;5073894;28;20055;-64
2021/03/19 03:00:52;;;;;;;84.22;36.78;;;1.30;99.90;;;;;;5073688;28;20017;-64
2021/03/19 03:03:18;;;;;;;79.13;36.40;;;1.20;99.90;;;;;;5073951;28;20028;-65
2021/03/19 03:05:44;;;;;;;74.18;37.25;;;1.20;99.90;;;;;;5073353;28;20067;-64
2021/03/19 03:08:14;;;;;;;71.57;33.63;;;1.10;99.90;;;;;;5073882;28;20032;-64
2021/03/19 03:10:40;;;;;;;79.97;36.78;;;1.10;99.90;;;;;;5073826;28;20454;-64
2021/03/19 03:13:08;;;;;;;79.45;34.45;;;1.10;99.90;;;;;;5073817;28;20024;-64
2021/03/19 03:15:34;;;;;;;77.15;36.53;;;1.10;99.90;;;;;;5073549;28;20024;-64
2021/03/19 03:17:59;;;;;;;82.13;35.72;;;1.00;99.90;;;;;;5072263;28;20096;-64
2021/03/19 03:20:30;;;;;;;75.57;37.72;;;0.90;99.90;;;;;;5073471;28;20527;-64
2021/03/19 03:22:56;;;;;;;73.00;35.80;;;0.80;99.90;;;;;;5073706;28;20025;-64
2021/03/19 03:25:23;;;;;;;79.47;35.95;;;0.80;99.90;;;;;;5073480;28;20016;-64
2021/03/19 03:27:49;;;;;;;75.15;36.55;;;0.80;99.90;;;;;;5073721;28;20371;-64
2021/03/19 03:30:36;;;;;;;82.28;37.28;;;0.70;99.90;;;;;;5073648;28;20078;-64
2021/03/19 03:33:02;;;;;;;72.93;35.53;;;0.60;99.90;;;;;;5073401;28;20104;-64
2021/03/19 03:35:28;;;;;;;78.35;36.80;;;0.60;99.90;;;;;;5073617;28;20075;-64
2021/03/19 03:37:54;;;;;;;68.80;33.78;;;0.70;99.90;;;;;;5073283;28;20060;-64
2021/03/19 03:40:27;;;;;;;76.97;34.50;;;0.60;99.90;;;;;;5075254;28;20025;-64
2021/03/19 03:42:54;;;;;;;73.03;33.00;;;0.50;99.90;;;;;;5077162;28;20501;-64
2021/03/19 03:45:20;;;;;;;69.57;32.25;;;0.50;99.90;;;;;;5077396;28;20021;-64
2021/03/19 03:47:46;;;;;;;68.03;32.33;;;0.50;99.90;;;;;;5077322;28;20039;-64
2021/03/19 03:50:15;;;;;;;65.38;31.17;;;0.50;99.90;;;;;;5077335;28;20028;-64
2021/03/19 03:52:40;;;;;;;66.50;30.75;;;0.40;99.90;;;;;;5076982;28;20056;-64
2021/03/19 03:55:07;;;;;;;62.15;28.70;;;0.50;99.90;;;;;;5077194;28;20169;-64
2021/03/19 03:57:33;;;;;;;61.03;29.23;;;0.50;99.90;;;;;;5076628;28;20509;-64
2021/03/19 03:59:58;;;;;;;57.72;27.63;;;0.50;99.90;;;;;;5077086;28;20101;-64
2021/03/19 04:02:27;;;;;;;59.92;28.08;;;0.40;99.90;;;;;;5075223;28;20024;-64
2021/03/19 04:04:53;;;;;;;50.55;26.10;;;0.40;99.90;;;;;;5077026;28;20032;-64
2021/03/19 04:07:20;;;;;;;53.30;26.77;;;0.50;99.90;;;;;;5076690;28;20070;-64
2021/03/19 04:09:45;;;;;;;51.42;25.05;;;0.50;99.90;;;;;;5076913;28;20044;-64
2021/03/19 04:12:12;;;;;;;47.10;24.27;;;0.60;99.90;;;;;;5075116;28;20025;-64
2021/03/19 04:14:39;;;;;;;43.75;22.90;;;0.60;99.90;;;;;;5076832;28;20023;-64
2021/03/19 04:17:28;;;;;;;48.88;23.95;;;0.60;99.90;;;;;;5076147;28;20071;-64
2021/03/19 04:19:55;;;;;;;40.83;22.92;;;0.60;99.90;;;;;;5075032;28;20484;-64
2021/03/19 04:22:21;;;;;;;36.90;21.33;;;0.50;99.90;;;;;;5074889;28;20028;-64
2021/03/19 04:24:48;;;;;;;42.05;20.92;;;0.60;99.90;;;;;;5076671;28;20055;-64
2021/03/19 04:27:18;;;;;;;38.50;19.75;;;0.60;99.90;;;;;;5076074;28;20020;-64
2021/03/19 04:29:44;;;;;;;39.33;20.27;;;0.50;99.90;;;;;;5076244;28;20030;-64
2021/03/19 04:32:09;;;;;;;35.35;18.80;;;0.50;99.90;;;;;;5076246;28;20104;-64
2021/03/19 04:34:35;;;;;;;42.67;21.52;;;0.50;99.90;;;;;;5076472;28;20055;-64
2021/03/19 04:37:03;;;;;;;45.47;22.08;;;0.40;99.90;;;;;;5075884;28;20031;-64
2021/03/19 04:39:31;;;;;;;41.33;20.65;;;0.30;99.90;;;;;;5076320;28;20024;-64
2021/03/19 04:42:00;;;;;;;38.72;20.05;;;0.30;99.90;;;;;;5076079;28;20150;-64
2021/03/19 04:44:29;;;;;;;45.42;23.38;;;0.20;99.90;;;;;;5076287;28;20016;-64
2021/03/19 04:46:55;;;;;;;39.20;21.15;;;0.20;99.90;;;;;;5076240;28;20021;-65
2021/03/19 04:49:21;;;;;;;42.55;22.80;;;0.10;99.90;;;;;;5076230;28;20362;-64
2021/03/19 04:51:47;;;;;;;46.85;23.63;;;0.00;99.90;;;;;;5075561;28;20048;-64
2021/03/19 04:54:13;;;;;;;45.58;23.65;;;-0.10;99.90;;;;;;5074933;28;20477;-64
2021/03/19 04:56:38;;;;;;;49.42;24.95;;;-0.10;99.90;;;;;;5075827;28;20111;-64
2021/03/19 04:59:05;;;;;;;50.10;25.13;;;-0.10;99.90;;;;;;5075961;28;20376;-64
2021/03/19 05:01:30;;;;;;;48.30;24.30;;;-0.10;99.90;;;;;;5076007;28;20025;-64
2021/03/19 05:03:56;;;;;;;47.47;23.67;;;0.00;99.90;;;;;;5075943;28;20486;-64
2021/03/19 05:06:21;;;;;;;50.42;24.40;;;-0.10;99.90;;;;;;5075351;28;20025;-64
2021/03/19 05:08:47;;;;;;;47.28;23.88;;;0.00;99.90;;;;;;5075799;28;20020;-64
2021/03/19 05:11:15;;;;;;;41.28;23.15;;;-0.10;99.90;;;;;;5075788;28;20484;-64
2021/03/19 05:13:42;;;;;;;40.40;23.15;;;-0.10;99.90;;;;;;5073949;28;20062;-64
2021/03/19 05:16:08;;;;;;;41.28;23.65;;;0.00;99.90;;;;;;5075409;28;20021;-64
2021/03/19 05:18:34;;;;;;;41.33;21.45;;;0.00;99.90;;;;;;5075550;28;20032;-64
2021/03/19 05:21:00;;;;;;;31.85;19.70;;;0.00;99.90;;;;;;5075584;28;20028;-64
2021/03/19 05:23:30;;;;;;;36.83;18.75;;;0.00;99.90;;;;;;5075219;28;20020;-64
2021/03/19 05:25:56;;;;;;;36.05;19.13;;;0.00;99.90;;;;;;5074207;28;20027;-64
2021/03/19 05:28:22;;;;;;;32.85;17.90;;;0.10;99.90;;;;;;5074200;28;20025;-64
2021/03/19 05:30:53;;;;;;;30.85;17.88;;;0.20;99.90;;;;;;5075367;28;20124;-64
2021/03/19 05:33:20;;;;;;;31.60;17.65;;;0.10;99.90;;;;;;5077299;28;20017;-64
2021/03/19 05:35:46;;;;;;;32.00;17.30;;;0.10;99.90;;;;;;5075265;28;20070;-64
2021/03/19 05:38:11;;;;;;;31.92;17.48;;;0.10;99.90;;;;;;5075197;28;20032;-63
2021/03/19 05:40:41;;;;;;;28.80;16.80;;;0.20;99.90;;;;;;5075184;28;20473;-64
2021/03/19 05:46:03;;;;;;;35.60;15.13;;;0.10;99.90;;;;;;5112194;27;20355;-63
2021/03/19 05:48:54;;;;;;;27.90;16.92;;;0.20;99.90;;;;;;5111933;28;20030;-63
2021/03/19 05:51:43;;;;;;;27.92;15.68;;;0.10;99.90;;;;;;5111594;28;20438;-63
2021/03/19 05:54:32;;;;;;;30.52;14.57;;;0.20;99.90;;;;;;5111104;28;20028;-63
2021/03/19 05:57:14;;;;;;;25.65;15.50;;;0.20;99.90;;;;;;5111100;28;20027;-63
2021/03/19 05:59:46;;;;;;;23.20;14.23;;;0.20;99.90;;;;;;5111735;28;20016;-63
2021/03/19 06:02:25;;;;;;;24.17;14.35;;;0.30;99.90;;;;;;5111702;28;20031;-63
2021/03/19 06:05:01;;;;;;;20.55;13.20;;;0.30;99.90;;;;;;5111335;28;20104;-63
2021/03/19 06:07:55;;;;;;;21.00;12.63;;;0.40;99.90;;;;;;5111227;28;20069;-63
2021/03/19 06:10:39;;;;;;;21.02;12.68;;;0.40;99.90;;;;;;5110879;28;20528;-63
2021/03/19 06:15:54;;;;;;;24.02;12.65;;;0.60;99.90;;;;;;5091843;28;20697;-64
2021/03/19 06:21:36;;;;;;;17.08;10.65;;;1.00;99.90;;;;;;5112192;27;20119;-64
2021/03/19 06:24:26;;;;;;;17.30;10.23;;;1.30;99.90;;;;;;5111285;28;20040;-63
2021/03/19 06:26:53;;;;;;;18.08;10.45;;;1.40;99.90;;;;;;5111795;28;20036;-65
2021/03/19 06:29:29;;;;;;;16.20;10.02;;;1.50;99.90;;;;;;5110563;28;20070;-65
2021/03/19 06:32:24;;;;;;;15.85;9.57;;;2.00;99.90;;;;;;5111760;28;20023;-64
2021/03/19 06:35:01;;;;;;;13.07;9.30;;;2.10;99.90;;;;;;5111094;28;20027;-65
2021/03/19 06:37:33;;;;;;;13.30;9.05;;;2.30;99.90;;;;;;5111666;28;20024;-65
2021/03/19 06:40:01;;;;;;;12.90;8.57;;;2.70;99.90;;;;;;5111497;28;20077;-65
2021/03/19 06:42:32;;;;;;;18.10;10.23;;;3.00;99.90;;;;;;5110999;28;20016;-65
2021/03/19 06:45:20;;;;;;;17.73;8.82;;;3.20;99.90;;;;;;5111809;28;20440;-65
2021/03/19 06:47:56;;;;;;;11.50;8.18;;;3.60;99.90;;;;;;5111397;28;20020;-65
2021/03/19 06:53:23;;;;;;;12.70;7.93;;;3.80;99.90;;;;;;5112201;27;20840;-64
2021/03/19 06:55:54;;;;;;;15.52;8.00;;;4.10;99.90;;;;;;5093072;28;20062;-64
2021/03/19 06:58:45;;;;;;;12.60;8.07;;;3.80;99.90;;;;;;5111847;28;20089;-65
2021/03/19 07:01:29;;;;;;;11.27;8.40;;;4.00;99.90;;;;;;5111929;28;20019;-64
2021/03/19 07:04:34;;;;;;;13.10;7.32;;;4.20;99.90;;;;;;5110209;28;20066;-65
2021/03/19 07:07:32;;;;;;;11.32;7.15;;;4.90;99.90;;;;;;5111071;28;20024;-65
2021/03/19 07:13:30;;;;;;;10.65;7.82;;;4.90;99.90;;;;;;5090884;28;20352;-65
2021/03/19 07:16:13;;;;;;;12.38;7.78;;;4.80;99.90;;;;;;5091240;28;20029;-65
2021/03/19 07:22:10;;;;;;;11.82;7.80;;;4.40;99.90;;;;;;5111477;27;20400;-64
2021/03/19 07:25:14;;;;;;;12.98;7.40;;;4.60;99.90;;;;;;5111267;28;20484;-64
2021/03/19 07:28:04;;;;;;;14.85;7.45;;;5.40;99.90;;;;;;5110366;28;20543;-65
2021/03/19 07:31:01;;;;;;;12.70;6.80;;;4.90;99.90;;;;;;5111765;28;20443;-65
2021/03/19 07:33:59;;;;;;;13.80;8.30;;;5.30;99.90;;;;;;5111638;28;20027;-65
2021/03/19 07:36:51;;;;;;;12.18;7.13;;;5.40;99.90;;;;;;5109664;28;20453;-65
2021/03/19 07:39:34;;;;;;;10.05;6.97;;;5.40;99.90;;;;;;5110856;28;20028;-65
2021/03/19 07:42:17;;;;;;;12.32;7.35;;;4.90;99.90;;;;;;5110062;28;20024;-65
2021/03/19 07:45:02;;;;;;;;;;;4.50;99.90;;;;;;5106027;28;20452;-65
2021/03/19 07:50:52;;;;;;;13.05;7.32;;;4.90;99.90;;;;;;5090042;27;20368;-65
2021/03/19 07:53:34;;;;;;;11.57;6.78;;;5.10;99.90;;;;;;5084813;28;20111;-65
2021/03/19 07:56:15;;;;;;;9.93;6.53;;;5.60;99.90;;;;;;5090662;28;20024;-65
2021/03/19 07:58:55;;;;;;;11.70;6.68;;;6.30;99.90;;;;;;5080451;28;20020;-65
2021/03/19 08:01:33;;;;;;;11.40;6.38;;;6.70;99.90;;;;;;5090763;28;20016;-65
2021/03/19 08:04:15;;;;;;;9.35;6.32;;;7.00;99.90;;;;;;5104586;28;20381;-65
2021/03/19 08:06:48;;;;;;;11.85;6.78;;;8.00;99.90;;;;;;5104481;28;20035;-65
2021/03/19 08:09:40;;;;;;;10.30;6.18;;;8.10;99.90;;;;;;5090454;28;20457;-65
2021/03/19 08:12:13;;;;;;;10.45;6.18;;;7.80;99.90;;;;;;5090279;28;20024;-65
2021/03/19 08:14:54;;;;;;;8.70;6.03;;;7.10;99.90;;;;;;5090343;28;20020;-65
2021/03/19 08:17:41;;;;;;;10.55;6.65;;;7.00;99.90;;;;;;5090136;28;20034;-65
2021/03/19 08:23:23;;;;;;;10.68;6.22;;;6.50;99.90;;;;;;5091121;28;20397;-66
2021/03/19 08:25:52;;;;;;;12.38;6.85;;;7.20;99.90;;;;;;5089022;28;20032;-65
2021/03/19 08:28:42;;;;;;;13.90;6.45;;;7.50;99.90;;;;;;5089419;28;20107;-65
2021/03/19 08:31:21;;;;;;;10.63;6.10;;;8.50;99.90;;;;;;5089356;28;20035;-65
2021/03/19 08:34:26;;;;;;;11.65;6.15;;;8.70;99.90;;;;;;5090135;28;20036;-65
2021/03/19 08:36:54;;;;;;;9.23;6.20;;;7.60;99.90;;;;;;5090535;28;20078;-65
2021/03/19 08:39:44;;;;;;;12.02;6.15;;;8.30;99.90;;;;;;5090337;28;20055;-65
2021/03/19 08:42:19;;;;;;;11.75;6.05;;;8.40;99.90;;;;;;5089941;28;20028;-65
2021/03/19 08:44:46;;;;;;;8.77;5.25;;;8.30;99.90;;;;;;5090055;28;20020;-65
2021/03/19 08:49:57;;;;;;;8.90;4.97;;;7.80;99.90;;;;;;5090602;27;20410;-65
2021/03/19 08:52:35;;;;;;;6.40;4.90;;;7.30;99.90;;;;;;5090683;28;20477;-65
2021/03/19 08:57:57;;;;;;;7.13;4.70;;;7.60;99.90;;;;;;5110652;27;20371;-65
2021/03/19 09:03:05;;;;;;;8.77;4.30;;;8.60;99.90;;;;;;5110829;27;20355;-65
2021/03/19 09:05:35;;;;;;;6.13;4.97;;;8.50;99.90;;;;;;5110949;28;20020;-65
2021/03/19 09:08:24;;;;;;;10.30;4.30;;;8.80;99.90;;;;;;5109706;28;20034;-66
2021/03/19 09:19:41;;;;;;;6.05;3.92;;;8.80;99.90;;;;;;5111157;27;20753;-64
2021/03/19 09:25:19;;;;;;;6.95;3.30;;;9.20;99.90;;;;;;5090695;28;20425;-65
2021/03/19 09:28:03;;;;;;;6.90;3.97;;;9.00;99.90;;;;;;5089791;28;20032;-65
2021/03/19 09:30:41;;;;;;;4.38;3.25;;;9.50;99.90;;;;;;5084082;28;20039;-65
2021/03/19 09:33:11;;;;;;;3.50;3.17;;;10.70;99.90;;;;;;5090727;28;20025;-65
2021/03/19 09:35:41;;;;;;;6.85;3.55;;;9.70;99.90;;;;;;5090068;28;20453;-65
2021/03/19 09:38:32;;;;;;;10.73;3.65;;;10.50;99.90;;;;;;5090305;28;20056;-65
2021/03/19 09:41:02;;;;;;;5.80;3.03;;;9.60;99.90;;;;;;5070152;28;20082;-64
2021/03/19 09:43:49;;;;;;;6.03;3.47;;;8.80;99.90;;;;;;5071082;28;20022;-65
2021/03/19 09:46:31;;;;;;;4.50;3.00;;;8.40;99.90;;;;;;5088958;28;20028;-65
2021/03/19 09:49:24;;;;;;;3.63;3.03;;;8.50;99.90;;;;;;5087772;28;20024;-65
2021/03/19 09:51:50;;;;;;;4.45;3.55;;;9.20;99.90;;;;;;5089920;28;20022;-65
2021/03/19 09:54:34;;;;;;;5.90;3.35;;;8.90;99.90;;;;;;5090069;28;20028;-65
2021/03/19 09:57:10;;;;;;;7.13;3.28;;;9.10;99.90;;;;;;5090159;28;20016;-65
2021/03/19 09:59:37;;;;;;;5.32;2.90;;;9.50;99.90;;;;;;5073232;28;20435;-65
2021/03/19 10:02:25;;;;;;;6.20;3.17;;;8.90;99.90;;;;;;5089396;28;20078;-65
2021/03/19 10:04:51;;;;;;;5.22;3.20;;;9.10;99.90;;;;;;5089565;28;20063;-65
2021/03/19 10:07:21;;;;;;;3.80;2.85;;;10.00;99.90;;;;;;5089648;28;20519;-65
2021/03/19 10:09:50;;;;;;;3.88;2.40;;;11.10;99.90;;;;;;5089852;28;20024;-65
2021/03/19 10:12:20;;;;;;;5.80;3.10;;;11.20;99.90;;;;;;5071023;28;20536;-65
2021/03/19 10:14:50;;;;;;;4.00;2.58;;;10.20;99.90;;;;;;5075719;28;20025;-65
2021/03/19 10:17:30;;;;;;;5.70;2.38;;;10.50;99.90;;;;;;5086806;28;20033;-65
2021/03/19 10:20:13;;;;;;;4.25;1.92;;;10.00;99.90;;;;;;5087504;28;20024;-65
2021/03/19 10:22:43;;;;;;;4.35;2.47;;;10.80;99.90;;;;;;5087194;28;20081;-67
2021/03/19 10:25:31;;;;;;;3.67;2.58;;;11.30;96.60;;;;;;5081747;28;20052;-65
2021/03/19 10:28:00;;;;;;;4.53;2.85;;;12.20;95.40;;;;;;5088837;28;20012;-65
2021/03/19 10:30:38;;;;;;;4.35;2.45;;;10.80;98.10;;;;;;5088708;28;20350;-65
2021/03/19 10:33:10;;;;;;;4.28;2.40;;;11.10;99.90;;;;;;5088712;28;20189;-65
2021/03/19 10:35:41;;;;;;;3.53;2.40;;;10.80;98.30;;;;;;5079458;28;20064;-65
2021/03/19 10:38:18;;;;;;;4.07;2.22;;;10.90;99.90;;;;;;5072223;28;20032;-65
2021/03/19 10:40:51;;;;;;;2.50;2.30;;;10.80;98.50;;;;;;5063773;28;20035;-65
2021/03/19 10:43:24;;;;;;;3.15;2.05;;;11.30;91.90;;;;;;5074544;28;20089;-65
2021/03/19 10:45:53;;;;;;;3.92;2.22;;;10.80;88.80;;;;;;5075403;28;20389;-65
2021/03/19 10:48:35;;;;;;;4.70;1.98;;;9.90;94.50;;;;;;5075158;28;20035;-65
2021/03/19 10:51:13;;;;;;;4.70;2.87;;;9.70;94.90;;;;;;5075233;28;20527;-65
2021/03/19 10:54:05;;;;;;;2.70;1.98;;;9.40;96.20;;;;;;5075496;28;20115;-65
2021/03/19 10:56:31;;;;;;;4.75;2.03;;;9.90;92.90;;;;;;5070555;28;20032;-65
2021/03/19 10:59:19;;;;;;;4.25;1.90;;;9.40;95.80;;;;;;5068347;28;20028;-65
2021/03/19 11:01:47;;;;;;;3.67;2.20;;;8.80;99.40;;;;;;5074919;28;20047;-65
2021/03/19 11:04:35;;;;;;;4.93;2.00;;;8.80;99.90;;;;;;5050987;28;20031;-65
2021/03/19 11:07:27;;;;;;;2.47;1.85;;;8.30;99.90;;;;;;5065374;28;20024;-65
2021/03/19 11:10:12;;;;;;;3.03;1.42;;;8.70;99.90;;;;;;5074715;28;20050;-65
2021/03/19 11:12:44;;;;;;;1.95;1.60;;;9.10;94.80;;;;;;5075230;28;20377;-65
2021/03/19 11:15:17;;;;;;;2.72;1.73;;;9.20;97.10;;;;;;5066509;28;20020;-65
2021/03/19 11:17:43;;;;;;;3.42;1.90;;;9.40;97.40;;;;;;5073834;28;20449;-65
2021/03/19 11:22:53;;;;;;;1.63;1.48;;;9.30;97.60;;;;;;5111760;27;20347;-65
2021/03/19 11:25:43;;;;;;;2.00;1.60;;;9.20;97.50;;;;;;5110608;28;20081;-65
2021/03/19 11:28:30;;;;;;;2.10;1.65;;;9.30;98.60;;;;;;5110746;28;20024;-65
2021/03/19 11:31:17;;;;;;;1.52;1.35;;;9.10;99.00;;;;;;5109553;28;20102;-65
2021/03/19 11:33:57;;;;;;;2.53;1.40;;;9.00;97.30;;;;;;5109286;28;20032;-65
2021/03/19 11:36:23;;;;;;;1.95;1.60;;;8.80;97.50;;;;;;5110055;28;20034;-65
2021/03/19 11:38:51;;;;;;;1.85;1.63;;;8.80;96.60;;;;;;5110562;28;20024;-65
2021/03/19 11:41:40;;;;;;;1.60;1.30;;;9.30;96.20;;;;;;5092378;28;20400;-65
2021/03/19 11:44:06;;;;;;;5.03;1.48;;;8.70;96.10;;;;;;5090280;28;20028;-65
2021/03/19 11:46:31;;;;;;;2.25;1.55;;;8.20;98.20;;;;;;5091659;28;20016;-65
2021/03/19 11:48:58;;;;;;;2.35;1.40;;;8.40;98.30;;;;;;5110770;28;20024;-65
2021/03/19 11:51:29;;;;;;;1.98;1.50;;;8.30;99.10;;;;;;5110192;28;20093;-65
2021/03/19 11:53:57;;;;;;;1.75;1.27;;;8.50;99.70;;;;;;5108033;28;20028;-65
2021/03/19 11:56:23;;;;;;;3.00;1.40;;;8.60;97.80;;;;;;5109151;28;20032;-65
2021/03/19 11:58:49;;;;;;;8.55;1.38;;;8.30;98.60;;;;;;5109423;28;20122;-65
2021/03/19 12:01:15;;;;;;;1.42;1.10;;;8.60;97.60;;;;;;5109192;28;20070;-65
2021/03/19 12:03:48;;;;;;;3.63;1.75;;;8.60;98.40;;;;;;5110133;28;20068;-65
2021/03/19 12:06:25;;;;;;;2.78;1.75;;;9.10;97.60;;;;;;5110382;28;20081;-72
2021/03/19 12:08:51;;;;;;;3.38;1.58;;;9.00;97.90;;;;;;5110314;28;20516;-72
2021/03/19 12:11:35;;;;;;;4.38;1.45;;;9.00;99.90;;;;;;5109224;28;20099;-72
2021/03/19 12:14:03;;;;;;;2.67;1.70;;;8.70;99.90;;;;;;5110220;28;20055;-72
2021/03/19 12:16:29;;;;;;;4.78;1.85;;;8.50;99.90;;;;;;5110237;28;20032;-72
2021/03/19 12:18:56;;;;;;;2.42;1.63;;;8.30;99.90;;;;;;5110128;28;20351;-72
2021/03/19 12:21:21;;;;;;;1.75;1.23;;;7.90;99.40;;;;;;5109852;28;20366;-72
2021/03/19 12:23:47;;;;;;;2.28;1.40;;;7.90;99.90;;;;;;5110159;28;20038;-72
2021/03/19 12:26:12;;;;;;;3.22;1.58;;;7.90;99.90;;;;;;5110032;28;20032;-64
2021/03/19 12:28:38;;;;;;;3.08;1.48;;;7.70;99.20;;;;;;5108697;28;20020;-64
2021/03/19 12:31:04;;;;;;;3.47;1.25;;;7.80;99.90;;;;;;5091227;28;20564;-64
2021/03/19 12:33:34;;;;;;;3.22;1.40;;;8.00;98.70;;;;;;5100275;28;20169;-64
2021/03/19 12:36:00;;;;;;;1.83;1.48;;;8.50;97.60;;;;;;5094857;28;20487;-64
2021/03/19 12:38:26;;;;;;;4.20;1.40;;;8.70;97.00;;;;;;5095870;28;20028;-64
2021/03/19 12:40:52;;;;;;;1.65;1.00;;;8.90;93.80;;;;;;5096210;28;20524;-64
2021/03/19 12:43:18;;;;;;;1.75;1.08;;;8.80;92.40;;;;;;5095777;28;20100;-63
2021/03/19 12:45:44;;;;;;;2.65;1.30;;;8.80;94.90;;;;;;5095251;28;20060;-64
2021/03/19 12:48:11;;;;;;;1.98;1.30;;;8.70;95.30;;;;;;5095952;28;20027;-63
2021/03/19 12:50:37;;;;;;;2.42;1.50;;;8.20;96.80;;;;;;5094312;28;20032;-63
2021/03/19 12:53:06;;;;;;;2.75;1.30;;;8.30;98.90;;;;;;5096020;28;20020;-63
2021/03/19 12:55:35;;;;;;;2.00;1.23;;;8.20;97.90;;;;;;5095174;28;20020;-63
2021/03/19 12:58:01;;;;;;;4.60;1.40;;;7.90;97.20;;;;;;5095543;28;20020;-63
2021/03/19 13:00:30;;;;;;;1.48;1.30;;;8.00;96.40;;;;;;5095758;28;20027;-63
2021/03/19 13:02:56;;;;;;;1.65;1.20;;;7.80;97.20;;;;;;5093801;28;20035;-63
2021/03/19 13:05:24;;;;;;;1.50;1.13;;;8.20;96.80;;;;;;5094162;28;20028;-63
2021/03/19 13:07:50;;;;;;;1.60;1.05;;;8.50;95.20;;;;;;5094930;28;20081;-63
2021/03/19 13:10:17;;;;;;;1.33;1.00;;;8.70;94.90;;;;;;5095474;28;20024;-63
2021/03/19 13:12:43;;;;;;;2.30;1.00;;;8.50;94.30;;;;;;5095439;28;20016;-63
2021/03/19 13:15:12;;;;;;;2.20;1.10;;;8.50;93.90;;;;;;5095687;28;20020;-63
2021/03/19 13:17:37;;;;;;;1.48;1.30;;;8.40;87.80;;;;;;5094879;28;20035;-63
2021/03/19 13:20:06;;;;;;;4.22;1.60;;;8.10;92.40;;;;;;5094682;28;20057;-65
2021/03/19 13:22:31;;;;;;;2.85;1.10;;;8.60;93.10;;;;;;5094612;28;20086;-63
2021/03/19 13:24:56;;;;;;;3.63;1.38;;;8.90;88.30;;;;;;5094746;28;20117;-63
2021/03/19 13:27:22;;;;;;;2.42;1.20;;;8.90;81.60;;;;;;5095330;28;20031;-63
2021/03/19 13:29:48;;;;;;;1.73;0.98;;;8.70;87.10;;;;;;5095141;28;20025;-64
2021/03/19 13:32:13;;;;;;;2.35;1.13;;;8.70;79.60;;;;;;5094300;28;20059;-64
2021/03/19 13:34:41;;;;;;;1.33;0.90;;;9.10;80.00;;;;;;5095125;28;20079;-63
2021/03/19 13:37:07;;;;;;;2.95;1.30;;;8.90;86.00;;;;;;5093479;28;20107;-64
2021/03/19 13:39:35;;;;;;;1.95;0.90;;;8.80;82.50;;;;;;5094206;28;20040;-64
2021/03/19 13:42:06;;;;;;;1.05;0.90;;;8.60;87.10;;;;;;5094813;28;20073;-63
2021/03/19 13:44:32;;;;;;;2.38;1.02;;;9.20;89.00;;;;;;5092541;28;20016;-64
2021/03/19 13:46:59;;;;;;;2.10;1.02;;;9.60;72.80;;;;;;5094855;28;20085;-64
2021/03/19 13:49:24;;;;;;;1.30;1.17;;;9.40;71.80;;;;;;5094708;28;20395;-63
2021/03/19 13:51:50;;;;;;;2.33;1.20;;;9.20;75.20;;;;;;5094252;28;20032;-64
2021/03/19 13:54:16;;;;;;;1.27;0.98;;;8.80;78.20;;;;;;5094198;28;20040;-64
2021/03/19 13:56:42;;;;;;;1.42;1.10;;;8.60;85.70;;;;;;5094212;28;20081;-63
2021/03/19 13:59:08;;;;;;;2.63;1.20;;;8.60;89.60;;;;;;5093268;28;20381;-63
2021/03/19 14:01:33;;;;;;;1.42;1.02;;;8.40;91.20;;;;;;5094340;28;20028;-63
2021/03/19 14:03:59;;;;;;;1.42;0.82;;;8.50;90.50;;;;;;5093771;28;20032;-63
2021/03/19 14:06:26;;;;;;;1.10;1.00;;;8.30;90.10;;;;;;5094309;28;20469;-64